Time;durP1;ratioP1;P1;durP2;ratioP2;P2;SDS_P1;SDS_P2;PMS_P1;PMS_P2;Temp;Humidity;BMP_temperature;BMP_pressure;BME280_temperature;BME280_humidity;BME280_pressure;Samples;Min_cycle;Max_cycle;Signal;HPM_P1;HPM_P2
2022/10/25 00:00:45;;;;;;;1.70;0.90;;;;;;;;;;5100475;28;20207;-64
2022/10/25 00:03:13;;;;;;;0.70;0.70;;;;;;;;;;5101751;28;20212;-64
2022/10/25 00:05:42;;;;;;;1.58;0.80;;;;;;;;;;5100225;28;20302;-64
2022/10/25 00:08:10;;;;;;;1.40;0.90;;;;;;;;;;5100851;28;20242;-63
2022/10/25 00:10:38;;;;;;;1.08;0.90;;;;;;;;;;5101233;28;20215;-64
2022/10/25 00:13:07;;;;;;;0.85;0.82;;;;;;;;;;5101304;28;20212;-64
2022/10/25 00:15:35;;;;;;;0.70;0.70;;;;;;;;;;5101038;28;20288;-65
2022/10/25 00:18:04;;;;;;;0.70;0.70;;;;;;;;;;5100965;28;20629;-64
2022/10/25 00:20:32;;;;;;;0.73;0.73;;;;;;;;;;5101068;28;20203;-64
2022/10/25 00:22:59;;;;;;;0.70;0.70;;;;;;;;;;5100872;28;20587;-63
2022/10/25 00:25:27;;;;;;;1.33;0.80;;;;;;;;;;5101075;28;20247;-65
2022/10/25 00:27:55;;;;;;;1.00;0.80;;;;;;;;;;5101059;28;20298;-64
2022/10/25 00:30:23;;;;;;;0.75;0.60;;;;;;;;;;5100874;28;20306;-64
2022/10/25 00:32:51;;;;;;;1.25;0.80;;;;;;;;;;5100470;28;20783;-63
2022/10/25 00:35:20;;;;;;;0.80;0.77;;;;;;;;;;5100010;28;20199;-64
2022/10/25 00:37:48;;;;;;;0.95;0.80;;;;;;;;;;5101044;28;20495;-64
2022/10/25 00:40:16;;;;;;;1.08;0.80;;;;;;;;;;5100610;28;20290;-64
2022/10/25 00:42:44;;;;;;;0.80;0.80;;;;;;;;;;5100668;28;20226;-65
2022/10/25 00:45:17;;;;;;;0.93;0.80;;;;;;;;;;5100472;28;20568;-64
2022/10/25 00:47:47;;;;;;;0.90;0.77;;;;;;;;;;5100818;28;20223;-64
2022/10/25 00:50:17;;;;;;;0.90;0.70;;;;;;;;;;5100483;28;20208;-63
2022/10/25 00:52:48;;;;;;;1.30;0.75;;;;;;;;;;5100526;28;20211;-64
2022/10/25 00:55:18;;;;;;;1.02;0.85;;;;;;;;;;5100132;28;20207;-64
2022/10/25 00:57:47;;;;;;;0.88;0.73;;;;;;;;;;5099983;28;20199;-64
2022/10/25 01:00:16;;;;;;;0.70;0.65;;;;;;;;;;5100058;28;20209;-65
2022/10/25 01:02:44;;;;;;;0.73;0.70;;;;;;;;;;5100183;28;20215;-64
2022/10/25 01:05:11;;;;;;;0.73;0.70;;;;;;;;;;5100213;28;20204;-64
2022/10/25 01:07:39;;;;;;;0.80;0.65;;;;;;;;;;5100129;28;20270;-64
2022/10/25 01:10:10;;;;;;;0.80;0.80;;;;;;;;;;5100021;28;20687;-64
2022/10/25 01:12:38;;;;;;;0.82;0.80;;;;;;;;;;5100045;28;20295;-64
2022/10/25 01:15:07;;;;;;;1.15;0.68;;;;;;;;;;5099890;28;20239;-64
2022/10/25 01:17:39;;;;;;;0.88;0.70;;;;;;;;;;5100083;28;20556;-64
2022/10/25 01:20:25;;;;;;;0.80;0.80;;;;;;;;;;5100004;28;20216;-64
2022/10/25 01:22:57;;;;;;;0.95;0.90;;;;;;;;;;5099896;28;20298;-64
2022/10/25 01:25:41;;;;;;;1.00;0.93;;;;;;;;;;5099813;28;20247;-64
2022/10/25 01:28:10;;;;;;;0.80;0.63;;;;;;;;;;5099194;28;20200;-64
2022/10/25 01:31:02;;;;;;;0.80;0.70;;;;;;;;;;5099711;28;20298;-64
2022/10/25 01:33:34;;;;;;;0.90;0.75;;;;;;;;;;5080085;28;20295;-64
2022/10/25 01:36:07;;;;;;;1.15;0.80;;;;;;;;;;5099587;28;20265;-64
2022/10/25 01:38:40;;;;;;;0.80;0.80;;;;;;;;;;5100058;28;20297;-63
2022/10/25 01:41:16;;;;;;;0.80;0.70;;;;;;;;;;5099556;28;20286;-64
2022/10/25 01:43:48;;;;;;;0.77;0.68;;;;;;;;;;5098930;28;20199;-64
2022/10/25 01:46:21;;;;;;;0.68;0.68;;;;;;;;;;5099233;28;20709;-64
2022/10/25 01:48:56;;;;;;;0.65;0.65;;;;;;;;;;5099704;28;20203;-64
2022/10/25 01:51:27;;;;;;;0.95;0.80;;;;;;;;;;5099278;28;20203;-64
2022/10/25 01:53:55;;;;;;;0.70;0.70;;;;;;;;;;5099791;28;20230;-64
2022/10/25 01:56:25;;;;;;;0.80;0.70;;;;;;;;;;5098844;28;20204;-64
2022/10/25 01:59:01;;;;;;;0.77;0.77;;;;;;;;;;5098737;28;20210;-64
2022/10/25 02:01:33;;;;;;;0.88;0.70;;;;;;;;;;5099077;28;20203;-64
2022/10/25 02:04:07;;;;;;;0.60;0.60;;;;;;;;;;5099444;28;20231;-64
2022/10/25 02:06:37;;;;;;;0.70;0.60;;;;;;;;;;5099018;28;20246;-64
2022/10/25 02:09:07;;;;;;;0.75;0.75;;;;;;;;;;5099081;28;20308;-64
2022/10/25 02:11:34;;;;;;;0.70;0.60;;;;;;;;;;5098588;28;20200;-64
2022/10/25 02:14:08;;;;;;;1.30;0.60;;;;;;;;;;5098744;28;20211;-64
2022/10/25 02:16:38;;;;;;;0.70;0.68;;;;;;;;;;5078558;28;20223;-64
2022/10/25 02:19:08;;;;;;;0.50;0.50;;;;;;;;;;5078473;28;20204;-64
2022/10/25 02:21:37;;;;;;;0.85;0.65;;;;;;;;;;5078048;28;20587;-64
2022/10/25 02:24:08;;;;;;;0.70;0.70;;;;;;;;;;5078428;28;20269;-64
2022/10/25 02:26:37;;;;;;;0.60;0.60;;;;;;;;;;5067104;28;20224;-64
2022/10/25 02:29:05;;;;;;;0.73;0.70;;;;;;;;;;5057956;28;20651;-64
2022/10/25 02:31:35;;;;;;;0.70;0.70;;;;;;;;;;5058561;28;20205;-65
2022/10/25 02:34:02;;;;;;;0.70;0.70;;;;;;;;;;5058233;28;20211;-64
2022/10/25 02:36:32;;;;;;;0.80;0.60;;;;;;;;;;5058309;28;20579;-64
2022/10/25 02:39:00;;;;;;;0.68;0.68;;;;;;;;;;5058043;28;20231;-64
2022/10/25 02:41:28;;;;;;;0.50;0.50;;;;;;;;;;5057979;28;20208;-64
2022/10/25 02:43:56;;;;;;;0.52;0.52;;;;;;;;;;5057585;28;20201;-65
2022/10/25 02:46:24;;;;;;;0.60;0.60;;;;;;;;;;5057754;28;20239;-64
2022/10/25 02:48:52;;;;;;;0.55;0.55;;;;;;;;;;5058025;28;20205;-64
2022/10/25 02:51:20;;;;;;;0.60;0.60;;;;;;;;;;5057871;28;20201;-64
2022/10/25 02:53:49;;;;;;;0.50;0.50;;;;;;;;;;5057954;28;20582;-64
2022/10/25 02:56:18;;;;;;;0.50;0.50;;;;;;;;;;5064676;28;20584;-64
2022/10/25 02:58:46;;;;;;;0.50;0.50;;;;;;;;;;5076925;28;20204;-64
2022/10/25 03:01:14;;;;;;;0.60;0.60;;;;;;;;;;5078022;28;20215;-64
2022/10/25 03:03:42;;;;;;;0.60;0.60;;;;;;;;;;5077914;28;20631;-64
2022/10/25 03:06:11;;;;;;;0.57;0.57;;;;;;;;;;5077514;28;20265;-64
2022/10/25 03:08:39;;;;;;;0.65;0.65;;;;;;;;;;5077964;28;20266;-64
2022/10/25 03:11:09;;;;;;;0.75;0.70;;;;;;;;;;5077192;28;20555;-64
2022/10/25 03:13:36;;;;;;;0.60;0.60;;;;;;;;;;5076322;28;20214;-64
2022/10/25 03:16:04;;;;;;;1.67;0.75;;;;;;;;;;5077259;28;20587;-65
2022/10/25 03:18:32;;;;;;;0.70;0.70;;;;;;;;;;5077565;28;20266;-64
2022/10/25 03:21:00;;;;;;;1.20;0.70;;;;;;;;;;5077611;28;20205;-64
2022/10/25 03:23:29;;;;;;;1.55;0.60;;;;;;;;;;5077855;28;20212;-65
2022/10/25 03:25:57;;;;;;;2.28;0.70;;;;;;;;;;5072948;28;20205;-64
2022/10/25 03:28:27;;;;;;;4.55;0.88;;;;;;;;;;5057361;28;20331;-65
2022/10/25 03:30:55;;;;;;;2.03;0.85;;;;;;;;;;5057204;28;20208;-65
2022/10/25 03:33:22;;;;;;;2.10;0.95;;;;;;;;;;5057574;28;20205;-65
2022/10/25 03:35:51;;;;;;;1.75;0.70;;;;;;;;;;5060579;28;20227;-65
2022/10/25 03:38:18;;;;;;;3.10;0.70;;;;;;;;;;5061227;28;20201;-66
2022/10/25 03:40:47;;;;;;;1.40;0.50;;;;;;;;;;5061453;28;20561;-64
2022/10/25 03:43:14;;;;;;;1.30;0.70;;;;;;;;;;5061457;28;20613;-65
2022/10/25 03:45:44;;;;;;;1.45;0.77;;;;;;;;;;5061079;28;20215;-65
2022/10/25 03:48:11;;;;;;;0.75;0.60;;;;;;;;;;5061078;28;20551;-65
2022/10/25 03:50:39;;;;;;;1.67;0.73;;;;;;;;;;5061144;28;20204;-65
2022/10/25 03:53:07;;;;;;;1.52;0.70;;;;;;;;;;5060967;28;20205;-65
2022/10/25 03:55:35;;;;;;;1.58;0.77;;;;;;;;;;5056840;28;20227;-65
2022/10/25 03:58:03;;;;;;;1.23;0.60;;;;;;;;;;5060775;28;20240;-65
2022/10/25 04:00:31;;;;;;;1.45;0.88;;;;;;;;;;5060863;28;20244;-65
2022/10/25 04:03:01;;;;;;;1.00;0.77;;;;;;;;;;5060938;28;20308;-65
2022/10/25 04:05:29;;;;;;;0.82;0.75;;;;;;;;;;5060635;28;20287;-66
2022/10/25 04:07:57;;;;;;;1.73;1.10;;;;;;;;;;5060471;28;20330;-65
2022/10/25 04:10:24;;;;;;;2.20;0.95;;;;;;;;;;5060703;28;20537;-64
2022/10/25 04:12:52;;;;;;;2.05;0.90;;;;;;;;;;5060654;28;20533;-65
2022/10/25 04:15:19;;;;;;;3.47;1.08;;;;;;;;;;5078383;28;20239;-64
2022/10/25 04:17:49;;;;;;;1.70;1.05;;;;;;;;;;5099021;28;20282;-65
2022/10/25 04:20:18;;;;;;;2.63;1.20;;;;;;;;;;5099265;28;20203;-65
2022/10/25 04:22:46;;;;;;;2.47;1.30;;;;;;;;;;5098428;28;20199;-65
2022/10/25 04:25:13;;;;;;;2.17;1.10;;;;;;;;;;5098981;28;20215;-65
2022/10/25 04:27:41;;;;;;;1.75;1.20;;;;;;;;;;5099252;28;20232;-65
2022/10/25 04:30:09;;;;;;;2.00;1.10;;;;;;;;;;5098841;28;20203;-65
2022/10/25 04:32:36;;;;;;;2.42;1.23;;;;;;;;;;5098780;28;20247;-65
2022/10/25 04:35:04;;;;;;;2.17;1.10;;;;;;;;;;5099303;28;20211;-65
2022/10/25 04:37:33;;;;;;;2.15;1.20;;;;;;;;;;5098327;28;20293;-65
2022/10/25 04:40:00;;;;;;;1.55;1.15;;;;;;;;;;5097885;28;20566;-65
2022/10/25 04:42:28;;;;;;;2.42;1.10;;;;;;;;;;5098139;28;20203;-64
2022/10/25 04:44:55;;;;;;;1.48;1.13;;;;;;;;;;5097807;28;20243;-65
2022/10/25 04:47:23;;;;;;;2.60;1.42;;;;;;;;;;5098937;28;20310;-64
2022/10/25 04:49:50;;;;;;;1.77;1.27;;;;;;;;;;5096975;28;20283;-65
2022/10/25 04:52:19;;;;;;;1.80;1.30;;;;;;;;;;5097630;28;20227;-65
2022/10/25 04:54:48;;;;;;;2.13;1.35;;;;;;;;;;5098405;28;20214;-64
2022/10/25 04:57:15;;;;;;;1.58;1.10;;;;;;;;;;5097365;28;20204;-65
2022/10/25 04:59:42;;;;;;;1.73;1.33;;;;;;;;;;5097290;28;20557;-66
2022/10/25 05:02:11;;;;;;;1.40;1.30;;;;;;;;;;5097041;28;20233;-64
2022/10/25 05:04:38;;;;;;;2.72;1.40;;;;;;;;;;5097643;28;20264;-64
2022/10/25 05:07:06;;;;;;;1.83;1.30;;;;;;;;;;5097971;28;20233;-64
2022/10/25 05:09:33;;;;;;;2.90;1.40;;;;;;;;;;5098013;28;20214;-64
2022/10/25 05:12:02;;;;;;;1.73;1.30;;;;;;;;;;5097871;28;20302;-64
2022/10/25 05:14:30;;;;;;;2.57;1.30;;;;;;;;;;5054195;28;1247149;-64
2022/10/25 05:16:57;;;;;;;1.48;1.27;;;;;;;;;;5097712;28;20757;-65
2022/10/25 05:19:25;;;;;;;1.98;1.35;;;;;;;;;;5096874;28;20326;-64
2022/10/25 05:21:52;;;;;;;2.03;1.48;;;;;;;;;;5097484;28;20216;-65
2022/10/25 05:24:20;;;;;;;3.00;1.35;;;;;;;;;;5098724;28;20235;-65
2022/10/25 05:26:47;;;;;;;1.92;1.50;;;;;;;;;;5098205;28;20297;-65
2022/10/25 05:29:16;;;;;;;1.67;1.30;;;;;;;;;;5098841;28;20351;-64
2022/10/25 05:31:44;;;;;;;1.73;1.20;;;;;;;;;;5098021;28;20212;-65
2022/10/25 05:34:11;;;;;;;1.85;1.02;;;;;;;;;;5098432;28;20212;-65
2022/10/25 05:36:39;;;;;;;1.80;1.17;;;;;;;;;;5098451;28;20247;-64
2022/10/25 05:39:06;;;;;;;1.80;1.60;;;;;;;;;;5097687;28;20300;-64
2022/10/25 05:41:34;;;;;;;1.60;1.13;;;;;;;;;;5097895;28;20576;-64
2022/10/25 05:44:01;;;;;;;1.38;1.23;;;;;;;;;;5098020;28;20525;-66
2022/10/25 05:46:30;;;;;;;1.42;1.27;;;;;;;;;;5097230;28;20298;-64
2022/10/25 05:48:59;;;;;;;2.55;1.35;;;;;;;;;;5097529;28;20245;-65
2022/10/25 05:51:27;;;;;;;1.38;1.27;;;;;;;;;;5097589;28;20204;-64
2022/10/25 05:53:55;;;;;;;1.58;1.10;;;;;;;;;;5097058;28;20204;-65
2022/10/25 05:56:23;;;;;;;1.30;1.20;;;;;;;;;;5097880;28;20290;-64
2022/10/25 05:58:51;;;;;;;1.50;1.30;;;;;;;;;;5096904;28;20235;-65
2022/10/25 06:01:20;;;;;;;1.73;1.40;;;;;;;;;;5097533;28;20302;-65
2022/10/25 06:03:49;;;;;;;2.25;1.33;;;;;;;;;;5097012;28;20272;-65
2022/10/25 06:06:17;;;;;;;1.92;1.50;;;;;;;;;;5097919;28;20298;-64
2022/10/25 06:08:45;;;;;;;1.58;1.20;;;;;;;;;;5097376;28;20263;-65
2022/10/25 06:11:13;;;;;;;2.97;1.20;;;;;;;;;;5096640;28;20200;-65
2022/10/25 06:13:41;;;;;;;1.85;1.30;;;;;;;;;;5097192;28;20244;-64
2022/10/25 06:16:10;;;;;;;1.92;1.40;;;;;;;;;;5096981;28;20305;-65
2022/10/25 06:18:38;;;;;;;1.65;1.17;;;;;;;;;;5097944;28;20595;-64
2022/10/25 06:21:08;;;;;;;1.83;1.20;;;;;;;;;;5097174;28;20214;-65
2022/10/25 06:23:37;;;;;;;2.15;1.30;;;;;;;;;;5097541;28;20315;-66
2022/10/25 06:26:06;;;;;;;2.55;1.30;;;;;;;;;;5097032;28;20204;-65
2022/10/25 06:28:34;;;;;;;1.70;1.25;;;;;;;;;;5097092;28;20593;-65
2022/10/25 06:31:02;;;;;;;1.95;1.08;;;;;;;;;;5097563;28;20561;-65
2022/10/25 06:33:30;;;;;;;1.77;1.20;;;;;;;;;;5097363;28;20203;-65
2022/10/25 06:35:57;;;;;;;1.50;1.30;;;;;;;;;;5096632;28;20203;-65
2022/10/25 06:38:27;;;;;;;1.33;1.13;;;;;;;;;;5097145;28;20231;-65
2022/10/25 06:40:59;;;;;;;3.10;1.30;;;;;;;;;;5096745;28;20210;-65
2022/10/25 06:43:26;;;;;;;3.65;1.42;;;;;;;;;;5096720;28;20203;-66
2022/10/25 06:45:54;;;;;;;1.40;1.15;;;;;;;;;;5096962;28;20239;-64
2022/10/25 06:48:21;;;;;;;1.58;1.25;;;;;;;;;;5097165;28;20273;-64
2022/10/25 06:50:49;;;;;;;1.73;1.20;;;;;;;;;;5095488;28;20690;-64
2022/10/25 06:53:17;;;;;;;1.67;1.20;;;;;;;;;;5096441;28;20204;-65
2022/10/25 06:55:48;;;;;;;1.65;1.20;;;;;;;;;;5096345;28;20643;-65
2022/10/25 06:58:15;;;;;;;2.85;1.30;;;;;;;;;;5095991;28;20200;-65
2022/10/25 07:00:43;;;;;;;1.45;1.30;;;;;;;;;;5096163;28;20776;-65
2022/10/25 07:03:10;;;;;;;1.38;1.10;;;;;;;;;;5096426;28;20298;-64
2022/10/25 07:05:38;;;;;;;1.77;1.23;;;;;;;;;;5096161;28;20579;-65
2022/10/25 07:08:06;;;;;;;1.88;1.17;;;;;;;;;;5096498;28;20322;-65
2022/10/25 07:10:33;;;;;;;1.77;1.10;;;;;;;;;;5096017;28;20224;-64
2022/10/25 07:13:02;;;;;;;1.98;1.45;;;;;;;;;;5095575;28;20203;-65
2022/10/25 07:15:30;;;;;;;2.78;1.27;;;;;;;;;;5095968;28;20239;-66
2022/10/25 07:17:57;;;;;;;1.73;1.38;;;;;;;;;;5095870;28;20203;-64
2022/10/25 07:20:25;;;;;;;1.40;1.15;;;;;;;;;;5095643;28;20698;-64
2022/10/25 07:22:52;;;;;;;1.90;1.08;;;;;;;;;;5095506;28;20286;-65
2022/10/25 07:25:20;;;;;;;1.92;1.08;;;;;;;;;;5094756;28;20214;-64
2022/10/25 07:27:47;;;;;;;1.95;1.33;;;;;;;;;;5091285;28;20615;-64
2022/10/25 07:30:16;;;;;;;2.47;1.10;;;;;;;;;;5075515;28;20295;-65
2022/10/25 07:32:44;;;;;;;3.10;1.40;;;;;;;;;;5075318;28;20212;-65
2022/10/25 07:35:12;;;;;;;2.40;1.33;;;;;;;;;;5075025;28;20239;-64
2022/10/25 07:37:42;;;;;;;1.33;1.00;;;;;;;;;;5091668;28;20261;-65
2022/10/25 07:40:10;;;;;;;1.58;1.15;;;;;;;;;;5095622;28;20270;-64
2022/10/25 07:42:37;;;;;;;3.00;1.50;;;;;;;;;;5094890;28;20299;-65
2022/10/25 07:45:05;;;;;;;1.50;1.10;;;;;;;;;;5095803;28;20559;-64
2022/10/25 07:47:34;;;;;;;1.38;1.08;;;;;;;;;;5095072;28;20211;-65
2022/10/25 07:50:01;;;;;;;1.17;0.90;;;;;;;;;;5093215;28;20302;-65
2022/10/25 07:52:29;;;;;;;1.45;1.20;;;;;;;;;;5093153;28;20258;-64
2022/10/25 07:54:56;;;;;;;2.22;1.20;;;;;;;;;;5094603;28;20290;-65
2022/10/25 07:57:24;;;;;;;2.28;1.13;;;;;;;;;;5094342;28;20717;-64
2022/10/25 07:59:51;;;;;;;1.80;1.00;;;;;;;;;;5093731;28;20225;-64
2022/10/25 08:02:19;;;;;;;1.58;1.15;;;;;;;;;;5094352;28;20298;-64
2022/10/25 08:04:48;;;;;;;1.52;1.10;;;;;;;;;;5094676;28;20203;-65
2022/10/25 08:07:16;;;;;;;1.42;1.10;;;;;;;;;;5093511;28;20859;-65
2022/10/25 08:09:43;;;;;;;1.75;1.20;;;;;;;;;;5093592;28;20227;-65
2022/10/25 08:12:11;;;;;;;1.10;0.98;;;;;;;;;;5094133;28;20235;-65
2022/10/25 08:14:38;;;;;;;1.58;1.10;;;;;;;;;;5094314;28;20588;-66
2022/10/25 08:17:06;;;;;;;1.13;1.02;;;;;;;;;;5093823;28;20280;-64
2022/10/25 08:19:33;;;;;;;1.63;1.10;;;;;;;;;;5094170;28;20306;-65
2022/10/25 08:22:02;;;;;;;1.30;0.95;;;;;;;;;;5098324;28;20203;-65
2022/10/25 08:24:31;;;;;;;1.23;1.10;;;;;;;;;;5097774;28;20549;-65
2022/10/25 08:26:58;;;;;;;1.73;1.20;;;;;;;;;;5098056;28;20203;-65
2022/10/25 08:29:27;;;;;;;1.00;0.90;;;;;;;;;;5098740;28;20262;-65
2022/10/25 08:31:54;;;;;;;1.70;1.00;;;;;;;;;;5098269;28;20242;-65
2022/10/25 08:34:21;;;;;;;1.75;1.00;;;;;;;;;;5098210;28;20306;-65
2022/10/25 08:36:49;;;;;;;1.10;0.93;;;;;;;;;;5097725;28;20371;-66
2022/10/25 08:39:18;;;;;;;1.27;0.80;;;;;;;;;;5097367;28;20204;-65
2022/10/25 08:41:49;;;;;;;1.23;1.00;;;;;;;;;;5097704;28;20672;-64
2022/10/25 08:44:19;;;;;;;1.48;0.88;;;;;;;;;;5097710;28;20258;-65
2022/10/25 08:46:50;;;;;;;1.55;1.00;;;;;;;;;;5097859;28;20204;-65
2022/10/25 08:49:20;;;;;;;1.38;0.95;;;;;;;;;;5098060;28;20258;-64
2022/10/25 08:51:49;;;;;;;2.28;0.93;;;;;;;;;;5097861;28;20821;-65
2022/10/25 08:54:27;;;;;;;1.58;1.00;;;;;;;;;;5098115;28;20211;-64
2022/10/25 08:57:00;;;;;;;1.52;0.90;;;;;;;;;;5098276;28;20267;-65
2022/10/25 08:59:29;;;;;;;1.25;0.80;;;;;;;;;;5096497;28;20207;-65
2022/10/25 09:01:58;;;;;;;1.10;0.82;;;;;;;;;;5097169;28;20699;-65
2022/10/25 09:04:25;;;;;;;1.23;0.98;;;;;;;;;;5097078;28;20304;-65
2022/10/25 09:06:58;;;;;;;0.70;0.70;;;;;;;;;;5097529;28;20284;-65
2022/10/25 09:09:33;;;;;;;2.05;1.00;;;;;;;;;;5096688;28;20223;-65
2022/10/25 09:12:06;;;;;;;1.23;0.93;;;;;;;;;;5097349;28;20721;-65
2022/10/25 09:14:39;;;;;;;1.63;1.10;;;;;;;;;;5096457;28;20313;-65
2022/10/25 09:17:13;;;;;;;1.08;0.95;;;;;;;;;;5097048;28;20246;-65
2022/10/25 09:19:44;;;;;;;1.08;0.80;;;;;;;;;;5097312;28;20200;-65
2022/10/25 09:22:14;;;;;;;1.50;0.80;;;;;;;;;;5096863;28;20737;-65
2022/10/25 09:24:48;;;;;;;1.10;0.90;;;;;;;;;;5096757;28;20290;-64
2022/10/25 09:27:16;;;;;;;1.10;0.90;;;;;;;;;;5096564;28;20233;-64
2022/10/25 09:29:46;;;;;;;1.48;0.80;;;;;;;;;;5096353;28;20638;-66
2022/10/25 09:32:16;;;;;;;0.77;0.75;;;;;;;;;;5094799;28;20195;-65
2022/10/25 09:34:44;;;;;;;0.80;0.70;;;;;;;;;;5096596;28;20246;-65
2022/10/25 09:37:16;;;;;;;1.25;0.82;;;;;;;;;;5096677;28;20229;-65
2022/10/25 09:39:47;;;;;;;1.67;0.70;;;;;;;;;;5096893;28;20207;-65
2022/10/25 09:42:18;;;;;;;0.85;0.80;;;;;;;;;;5096450;28;20243;-65
2022/10/25 09:44:48;;;;;;;1.25;0.85;;;;;;;;;;5096738;28;20245;-64
2022/10/25 09:47:20;;;;;;;0.88;0.88;;;;;;;;;;5095483;28;20199;-65
2022/10/25 09:49:52;;;;;;;0.85;0.73;;;;;;;;;;5095978;28;20717;-64
2022/10/25 09:52:23;;;;;;;1.00;0.70;;;;;;;;;;5096515;28;20243;-65
2022/10/25 09:54:54;;;;;;;0.90;0.68;;;;;;;;;;5094642;28;20207;-65
2022/10/25 09:57:21;;;;;;;0.80;0.80;;;;;;;;;;5096275;28;20250;-65
2022/10/25 09:59:50;;;;;;;1.08;0.90;;;;;;;;;;5096034;28;20239;-66
2022/10/25 10:02:20;;;;;;;1.02;0.80;;;;;;;;;;5095827;28;20286;-65
2022/10/25 10:04:48;;;;;;;1.20;0.88;;;;;;;;;;5094837;28;20246;-65
2022/10/25 10:07:18;;;;;;;1.00;0.70;;;;;;;;;;5095586;28;20211;-64
2022/10/25 10:09:46;;;;;;;0.80;0.80;;;;;;;;;;5095612;28;20317;-65
2022/10/25 10:12:19;;;;;;;0.70;0.60;;;;;;;;;;5095798;28;20695;-64
2022/10/25 10:14:50;;;;;;;1.45;0.80;;;;;;;;;;5095747;28;20324;-64
2022/10/25 10:17:19;;;;;;;0.80;0.80;;;;;;;;;;5096143;28;20203;-64
2022/10/25 10:20:06;;;;;;;0.80;0.70;;;;;;;;;;5095207;28;20289;-65
2022/10/25 10:22:36;;;;;;;0.63;0.63;;;;;;;;;;5095720;28;20231;-65
2022/10/25 10:25:04;;;;;;;0.80;0.80;;;;;;;;;;5095791;28;20243;-66
2022/10/25 10:27:34;;;;;;;0.93;0.82;;;;;;;;;;5094952;28;20246;-65
2022/10/25 10:30:03;;;;;;;0.75;0.73;;;;;;;;;;5095329;28;20246;-64
2022/10/25 10:32:33;;;;;;;0.93;0.80;;;;;;;;;;5095695;28;20213;-64
2022/10/25 10:35:02;;;;;;;1.42;1.05;;;;;;;;;;5095424;28;20207;-65
2022/10/25 10:37:30;;;;;;;0.98;0.77;;;;;;;;;;5094057;28;20243;-65
2022/10/25 10:39:59;;;;;;;3.72;0.88;;;;;;;;;;5094935;28;20684;-65
2022/10/25 10:42:35;;;;;;;0.73;0.70;;;;;;;;;;5095491;28;20302;-65
2022/10/25 10:45:17;;;;;;;0.70;0.70;;;;;;;;;;5094783;28;20550;-65
2022/10/25 10:47:45;;;;;;;1.17;0.70;;;;;;;;;;5092635;28;20223;-65
2022/10/25 10:50:21;;;;;;;0.70;0.70;;;;;;;;;;5094704;28;20314;-64
2022/10/25 10:52:58;;;;;;;0.80;0.73;;;;;;;;;;5094325;28;20291;-65
2022/10/25 10:55:30;;;;;;;0.90;0.80;;;;;;;;;;5095051;28;20200;-64
2022/10/25 10:58:02;;;;;;;0.95;0.90;;;;;;;;;;5095613;28;20211;-65
2022/10/25 11:00:30;;;;;;;0.75;0.70;;;;;;;;;;5095479;28;20744;-65
2022/10/25 11:02:58;;;;;;;0.73;0.73;;;;;;;;;;5094584;28;20644;-65
2022/10/25 11:05:26;;;;;;;1.35;0.70;;;;;;;;;;5093740;28;20688;-65
2022/10/25 11:07:56;;;;;;;1.15;0.90;;;;;;;;;;5094372;28;20226;-65
2022/10/25 11:10:30;;;;;;;0.75;0.70;;;;;;;;;;5094209;28;20223;-65
2022/10/25 11:13:10;;;;;;;0.80;0.73;;;;;;;;;;5095603;28;20301;-65
2022/10/25 11:15:46;;;;;;;1.00;0.60;;;;;;;;;;5095477;28;20756;-64
2022/10/25 11:18:14;;;;;;;1.15;0.88;;;;;;;;;;5094360;28;20558;-65
2022/10/25 11:20:46;;;;;;;0.98;0.60;;;;;;;;;;5094761;28;20775;-65
2022/10/25 11:23:20;;;;;;;1.15;0.70;;;;;;;;;;5094651;28;20254;-65
2022/10/25 11:25:50;;;;;;;1.15;0.80;;;;;;;;;;5095526;28;20199;-65
2022/10/25 11:28:27;;;;;;;0.85;0.85;;;;;;;;;;5095662;28;20688;-64
2022/10/25 11:31:00;;;;;;;1.20;0.80;;;;;;;;;;5094517;28;20339;-64
2022/10/25 11:33:30;;;;;;;1.08;0.80;;;;;;;;;;5093678;28;20299;-65
2022/10/25 11:36:07;;;;;;;1.02;0.60;;;;;;;;;;5093716;28;20238;-65
2022/10/25 11:38:44;;;;;;;0.90;0.70;;;;;;;;;;5094627;28;20235;-64
2022/10/25 11:41:18;;;;;;;1.52;0.93;;;;;;;;;;5094639;28;20280;-65
2022/10/25 11:43:53;;;;;;;1.50;0.90;;;;;;;;;;5095526;28;20203;-64
2022/10/25 11:46:25;;;;;;;0.70;0.70;;;;;;;;;;5094165;28;20301;-65
2022/10/25 11:48:58;;;;;;;1.60;0.75;;;;;;;;;;5094501;28;20215;-65
2022/10/25 11:51:31;;;;;;;0.88;0.80;;;;;;;;;;5094421;28;20302;-65
2022/10/25 11:54:08;;;;;;;1.35;0.65;;;;;;;;;;5094482;28;20247;-64
2022/10/25 11:56:41;;;;;;;0.90;0.70;;;;;;;;;;5097165;28;20227;-65
2022/10/25 11:59:16;;;;;;;0.80;0.70;;;;;;;;;;5098611;28;20814;-64
2022/10/25 12:01:53;;;;;;;1.20;0.77;;;;;;;;;;5098758;28;20301;-65
2022/10/25 12:04:39;;;;;;;0.68;0.63;;;;;;;;;;5097665;28;20204;-65
2022/10/25 12:07:13;;;;;;;0.90;0.80;;;;;;;;;;5097925;28;20200;-64
2022/10/25 12:09:45;;;;;;;0.80;0.80;;;;;;;;;;5097964;28;20259;-65
2022/10/25 12:12:14;;;;;;;0.73;0.65;;;;;;;;;;5097726;28;20205;-65
2022/10/25 12:14:45;;;;;;;0.60;0.60;;;;;;;;;;5097059;28;20231;-65
2022/10/25 12:17:15;;;;;;;0.77;0.70;;;;;;;;;;5097683;28;20733;-65
2022/10/25 12:19:45;;;;;;;1.38;0.77;;;;;;;;;;5098143;28;20199;-65
2022/10/25 12:22:17;;;;;;;1.40;0.68;;;;;;;;;;5097112;28;20554;-65
2022/10/25 12:24:50;;;;;;;0.90;0.70;;;;;;;;;;5097324;28;20543;-65
2022/10/25 12:27:18;;;;;;;0.65;0.65;;;;;;;;;;5097476;28;20204;-65
2022/10/25 12:29:49;;;;;;;1.13;0.70;;;;;;;;;;5097687;28;20280;-65
2022/10/25 12:32:19;;;;;;;0.80;0.60;;;;;;;;;;5097476;28;20253;-65
2022/10/25 12:34:49;;;;;;;1.90;0.77;;;;;;;;;;5097881;28;20239;-65
2022/10/25 12:37:19;;;;;;;1.13;0.75;;;;;;;;;;5097431;28;20212;-66
2022/10/25 12:39:47;;;;;;;0.90;0.70;;;;;;;;;;5097222;28;20238;-65
2022/10/25 12:42:17;;;;;;;1.58;0.60;;;;;;;;;;5097561;28;20303;-65
2022/10/25 12:45:03;;;;;;;0.80;0.70;;;;;;;;;;5097139;28;20199;-64
2022/10/25 12:47:41;;;;;;;0.68;0.60;;;;;;;;;;5097822;28;20302;-65
2022/10/25 12:50:23;;;;;;;1.02;0.82;;;;;;;;;;5096701;28;20223;-65
2022/10/25 12:53:03;;;;;;;0.80;0.70;;;;;;;;;;5097152;28;20211;-65
2022/10/25 12:55:37;;;;;;;0.80;0.70;;;;;;;;;;5096242;28;20208;-64
2022/10/25 12:58:11;;;;;;;1.88;0.80;;;;;;;;;;5095874;28;20281;-66
2022/10/25 13:00:41;;;;;;;1.00;0.60;;;;;;;;;;5095620;28;20663;-65
2022/10/25 13:03:26;;;;;;;0.93;0.80;;;;;;;;;;5095831;28;20265;-64
2022/10/25 13:06:09;;;;;;;0.77;0.60;;;;;;;;;;5095142;28;20238;-64
2022/10/25 13:08:38;;;;;;;1.13;0.80;;;;;;;;;;5096463;28;20243;-64
2022/10/25 13:11:07;;;;;;;0.60;0.60;;;;;;;;;;5095757;28;20327;-65
2022/10/25 13:13:37;;;;;;;1.00;0.68;;;;;;;;;;5095449;28;20306;-65
2022/10/25 13:16:06;;;;;;;0.82;0.60;;;;;;;;;;5095342;28;20278;-65
2022/10/25 13:18:42;;;;;;;1.35;0.80;;;;;;;;;;5096618;28;20229;-64
2022/10/25 13:21:12;;;;;;;1.25;0.60;;;;;;;;;;5095025;28;20288;-65
2022/10/25 13:23:58;;;;;;;0.70;0.50;;;;;;;;;;5095397;28;20195;-64
2022/10/25 13:26:33;;;;;;;0.80;0.52;;;;;;;;;;5095249;28;20199;-65
2022/10/25 13:29:02;;;;;;;1.10;0.77;;;;;;;;;;5096438;28;20199;-65
2022/10/25 13:31:30;;;;;;;0.65;0.60;;;;;;;;;;5095735;28;20285;-65
2022/10/25 13:34:16;;;;;;;0.82;0.68;;;;;;;;;;5095837;28;20306;-65
2022/10/25 13:36:50;;;;;;;0.68;0.68;;;;;;;;;;5094528;28;20294;-65
2022/10/25 13:39:22;;;;;;;0.80;0.70;;;;;;;;;;5096070;28;20218;-64
2022/10/25 13:41:52;;;;;;;1.00;0.82;;;;;;;;;;5095793;28;20601;-64
2022/10/25 13:44:20;;;;;;;0.80;0.68;;;;;;;;;;5095398;28;20200;-64
2022/10/25 13:46:48;;;;;;;0.60;0.50;;;;;;;;;;5095532;28;20306;-65
2022/10/25 13:49:30;;;;;;;0.95;0.63;;;;;;;;;;5095300;28;20245;-65
2022/10/25 13:52:00;;;;;;;0.70;0.60;;;;;;;;;;5095873;28;20199;-65
2022/10/25 13:54:31;;;;;;;0.82;0.60;;;;;;;;;;5095872;28;20204;-65
2022/10/25 13:56:59;;;;;;;1.50;0.60;;;;;;;;;;5094978;28;20203;-65
2022/10/25 13:59:37;;;;;;;1.17;0.60;;;;;;;;;;5094382;28;20312;-64
2022/10/25 14:02:17;;;;;;;1.25;0.80;;;;;;;;;;5094594;28;20702;-65
2022/10/25 14:04:45;;;;;;;1.80;0.70;;;;;;;;;;5095479;28;20300;-65
2022/10/25 14:07:31;;;;;;;1.10;0.73;;;;;;;;;;5095245;28;20200;-65
2022/10/25 14:10:01;;;;;;;0.80;0.60;;;;;;;;;;5095430;28;20230;-66
2022/10/25 14:12:29;;;;;;;0.88;0.77;;;;;;;;;;5094272;28;20633;-65
2022/10/25 14:15:00;;;;;;;1.17;0.65;;;;;;;;;;5094133;28;20263;-65
2022/10/25 14:17:31;;;;;;;0.70;0.60;;;;;;;;;;5095021;28;20246;-66
2022/10/25 14:20:01;;;;;;;0.70;0.52;;;;;;;;;;5094047;28;20238;-64
2022/10/25 14:22:34;;;;;;;0.63;0.60;;;;;;;;;;5095104;28;20239;-65
2022/10/25 14:25:04;;;;;;;0.70;0.60;;;;;;;;;;5094516;28;20458;-64
2022/10/25 14:27:32;;;;;;;0.60;0.60;;;;;;;;;;5095057;28;20208;-65
2022/10/25 14:30:23;;;;;;;0.85;0.70;;;;;;;;;;5094923;28;20313;-64
2022/10/25 14:32:51;;;;;;;0.60;0.50;;;;;;;;;;5094010;28;20211;-65
2022/10/25 14:35:19;;;;;;;0.70;0.70;;;;;;;;;;5093518;28;20685;-64
2022/10/25 14:37:46;;;;;;;1.25;0.70;;;;;;;;;;5094299;28;20204;-65
2022/10/25 14:40:27;;;;;;;0.80;0.63;;;;;;;;;;5095744;28;20647;-64
2022/10/25 14:42:55;;;;;;;0.70;0.57;;;;;;;;;;5094907;28;20238;-65
2022/10/25 14:45:23;;;;;;;0.68;0.63;;;;;;;;;;5094993;28;20235;-64
2022/10/25 14:47:52;;;;;;;0.60;0.60;;;;;;;;;;5095383;28;20664;-65
2022/10/25 14:50:21;;;;;;;1.00;0.60;;;;;;;;;;5094617;28;20288;-65
2022/10/25 14:52:50;;;;;;;0.85;0.50;;;;;;;;;;5094614;28;20294;-65
2022/10/25 14:55:19;;;;;;;0.60;0.60;;;;;;;;;;5094634;28;20265;-64
2022/10/25 14:57:48;;;;;;;0.75;0.70;;;;;;;;;;5094489;28;20302;-65
2022/10/25 15:00:21;;;;;;;0.52;0.52;;;;;;;;;;5094302;28;20283;-65